Time;durP1;ratioP1;P1;durP2;ratioP2;P2;SDS_P1;SDS_P2;PMS_P1;PMS_P2;Temp;Humidity;BMP_temperature;BMP_pressure;BME280_temperature;BME280_humidity;BME280_pressure;Samples;Min_cycle;Max_cycle;Signal;HPM_P1;HPM_P2
2021/05/01 00:00:32;;;;;;;16.45;7.97;;;435.80;1971.20;;;;;;4870928;29;20469;-76
2021/05/01 00:02:57;;;;;;;25.35;10.05;;;435.70;1971.20;;;;;;4869931;29;20482;-76
2021/05/01 00:05:23;;;;;;;22.02;9.80;;;435.60;1971.20;;;;;;4876128;29;20081;-76
2021/05/01 00:07:49;;;;;;;25.10;11.93;;;435.60;1996.80;;;;;;4878532;29;20041;-75
2021/05/01 00:10:15;;;;;;;23.23;12.13;;;435.50;2022.40;;;;;;4878296;29;20033;-76
2021/05/01 00:12:41;;;;;;;23.52;12.60;;;435.50;1996.80;;;;;;4878677;29;20025;-76
2021/05/01 00:15:08;;;;;;;26.23;12.07;;;435.30;2022.40;;;;;;4878813;29;20104;-76
2021/05/01 00:17:34;;;;;;;30.45;13.30;;;435.60;2022.40;;;;;;4876332;29;20499;-76
2021/05/01 00:20:00;;;;;;;42.65;14.80;;;435.40;2022.40;;;;;;4878250;29;20044;-76
2021/05/01 00:22:26;;;;;;;29.15;13.88;;;435.30;2022.40;;;;;;4878471;29;20099;-76
2021/05/01 00:24:51;;;;;;;28.70;13.38;;;435.20;2022.40;;;;;;4878536;29;20031;-76
2021/05/01 00:27:17;;;;;;;36.38;14.23;;;410.50;2048.00;;;;;;4878614;29;20099;-77
2021/05/01 00:29:43;;;;;;;36.10;14.55;;;410.40;2048.00;;;;;;4877378;29;20155;-77
2021/05/01 00:32:08;;;;;;;28.55;13.68;;;410.50;2048.00;;;;;;4867458;29;20048;-77
2021/05/01 00:34:34;;;;;;;32.63;14.73;;;410.50;2048.00;;;;;;4866783;29;20029;-76
2021/05/01 00:37:02;;;;;;;28.65;13.52;;;410.30;2073.60;;;;;;4868008;29;21424;-76
2021/05/01 00:39:28;;;;;;;38.72;14.77;;;410.30;2073.60;;;;;;4866470;29;20021;-77
2021/05/01 00:41:54;;;;;;;29.45;12.52;;;410.30;2073.60;;;;;;4867873;29;20519;-76
2021/05/01 00:44:20;;;;;;;21.58;10.10;;;;;;;;;;4868927;29;20057;-76
2021/05/01 00:46:46;;;;;;;18.50;8.48;;;410.30;2073.60;;;;;;4878119;29;20025;-76
2021/05/01 00:49:12;;;;;;;17.75;9.02;;;410.30;2073.60;;;;;;4878178;29;20528;-77
2021/05/01 00:51:38;;;;;;;14.60;7.72;;;410.40;2073.60;;;;;;4877703;29;20057;-77
2021/05/01 00:54:04;;;;;;;15.63;6.95;;;410.50;2048.00;;;;;;4878111;29;20025;-77
2021/05/01 00:56:30;;;;;;;17.75;7.80;;;410.40;2048.00;;;;;;4860676;29;20057;-77
2021/05/01 00:58:56;;;;;;;13.27;7.28;;;410.40;2048.00;;;;;;4878081;29;20029;-76
2021/05/01 01:01:24;;;;;;;13.02;6.72;;;410.30;2073.60;;;;;;4877989;29;20402;-76
2021/05/01 01:03:50;;;;;;;21.10;7.60;;;410.30;2073.60;;;;;;4861563;29;20036;-77
2021/05/01 01:06:16;;;;;;;17.10;7.22;;;410.20;2073.60;;;;;;4877641;29;20021;-76
2021/05/01 01:08:45;;;;;;;16.38;7.22;;;410.30;2099.20;;;;;;4877878;29;20092;-77
2021/05/01 01:11:12;;;;;;;13.75;6.95;;;410.10;2099.20;;;;;;4875259;29;20028;-76
2021/05/01 01:13:39;;;;;;;16.52;6.75;;;410.10;2099.20;;;;;;4877771;29;20029;-78
2021/05/01 01:16:05;;;;;;;12.35;5.80;;;410.10;2099.20;;;;;;4877792;29;20029;-77
2021/05/01 01:18:32;;;;;;;13.13;7.30;;;410.00;2124.80;;;;;;4877660;29;20037;-75
2021/05/01 01:21:00;;;;;;;12.65;7.38;;;410.00;2124.80;;;;;;4877638;29;20037;-77
2021/05/01 01:23:30;;;;;;;13.38;6.45;;;410.00;2124.80;;;;;;4877608;29;20021;-76
2021/05/01 01:25:56;;;;;;;18.70;7.03;;;409.90;2150.40;;;;;;4877569;29;20490;-77
2021/05/01 01:28:22;;;;;;;13.15;7.38;;;409.80;2150.40;;;;;;4877839;29;20027;-78
2021/05/01 01:30:48;;;;;;;13.52;6.53;;;409.60;2201.60;;;;;;4872836;29;20017;-76
2021/05/01 01:33:14;;;;;;;13.35;6.43;;;409.60;2201.60;;;;;;4878347;29;20040;-77
2021/05/01 01:35:40;;;;;;;17.33;7.00;;;384.90;2176.00;;;;;;4877880;29;20033;-75
2021/05/01 01:38:07;;;;;;;12.68;7.00;;;384.90;2176.00;;;;;;4878122;29;20393;-76
2021/05/01 01:40:35;;;;;;;12.20;6.95;;;409.60;2201.60;;;;;;4877867;29;20500;-75
2021/05/01 01:43:00;;;;;;;17.17;7.13;;;409.70;2201.60;;;;;;4878356;29;20036;-76
2021/05/01 01:45:28;;;;;;;16.05;6.57;;;409.80;2176.00;;;;;;4877875;29;20378;-76
2021/05/01 01:47:54;;;;;;;14.10;7.53;;;409.90;2176.00;;;;;;4877838;29;20033;-75
2021/05/01 01:50:21;;;;;;;15.80;7.53;;;409.90;2176.00;;;;;;4877377;29;20128;-74
2021/05/01 01:52:47;;;;;;;12.63;7.40;;;409.70;2201.60;;;;;;4877806;29;20483;-75
2021/05/01 01:55:17;;;;;;;15.82;7.72;;;409.90;2201.60;;;;;;4877941;29;20116;-75
2021/05/01 01:57:44;;;;;;;13.73;7.78;;;409.90;2201.60;;;;;;4877730;29;20052;-75
2021/05/01 02:00:21;;;;;;;18.20;8.23;;;409.80;2201.60;;;;;;4877839;29;20025;-75
2021/05/01 02:02:47;;;;;;;18.55;7.43;;;409.90;2201.60;;;;;;4877731;29;20033;-75
2021/05/01 02:05:14;;;;;;;16.08;7.15;;;409.80;2201.60;;;;;;4877855;29;20041;-74
2021/05/01 02:07:40;;;;;;;16.73;7.22;;;409.70;2227.20;;;;;;4877727;29;20041;-75
2021/05/01 02:10:07;;;;;;;17.25;8.52;;;409.60;2252.80;;;;;;4877510;29;20036;-75
2021/05/01 02:12:37;;;;;;;17.52;8.52;;;409.70;2252.80;;;;;;4877813;29;20115;-75
2021/05/01 02:15:15;;;;;;;12.50;7.15;;;409.90;2227.20;;;;;;4861666;29;20041;-74
2021/05/01 02:17:47;;;;;;;17.70;7.47;;;410.00;2201.60;;;;;;4877790;29;20037;-75
2021/05/01 02:20:15;;;;;;;18.60;8.00;;;410.00;2201.60;;;;;;4860553;29;20085;-75
2021/05/01 02:22:41;;;;;;;17.98;7.78;;;410.00;2201.60;;;;;;4879204;29;20126;-75
2021/05/01 02:25:11;;;;;;;17.05;7.97;;;410.00;2201.60;;;;;;4881304;29;20039;-75
2021/05/01 02:27:38;;;;;;;15.10;7.65;;;410.10;2201.60;;;;;;4881185;29;20045;-75
2021/05/01 02:30:06;;;;;;;15.05;8.60;;;410.20;2176.00;;;;;;4881290;29;20032;-75
2021/05/01 02:32:32;;;;;;;13.85;6.55;;;410.40;2176.00;;;;;;4881044;29;20040;-75
2021/05/01 02:34:58;;;;;;;12.20;7.20;;;410.40;2176.00;;;;;;4881179;29;20025;-75
2021/05/01 02:37:24;;;;;;;20.52;9.10;;;410.20;2201.60;;;;;;4880765;29;20521;-75
2021/05/01 02:39:49;;;;;;;16.98;7.65;;;410.30;2201.60;;;;;;4881205;29;20036;-75
2021/05/01 02:42:15;;;;;;;21.50;8.05;;;410.40;2176.00;;;;;;4880766;29;20032;-75
2021/05/01 02:44:41;;;;;;;13.15;7.90;;;410.40;2176.00;;;;;;4880898;29;20053;-75
2021/05/01 02:47:07;;;;;;;16.42;8.40;;;410.40;2176.00;;;;;;4880905;29;20094;-75
2021/05/01 02:49:32;;;;;;;16.52;8.60;;;410.20;2201.60;;;;;;4864040;29;20029;-75
2021/05/01 02:51:58;;;;;;;19.67;8.15;;;410.10;2201.60;;;;;;4880291;29;20068;-75
2021/05/01 02:54:24;;;;;;;17.13;8.43;;;409.90;2227.20;;;;;;4880581;29;20052;-75
2021/05/01 02:56:50;;;;;;;17.52;8.23;;;409.90;2227.20;;;;;;4880697;29;20482;-75
2021/05/01 02:59:16;;;;;;;19.80;8.63;;;409.70;2252.80;;;;;;4880373;29;20026;-75
2021/05/01 03:01:41;;;;;;;17.63;8.20;;;409.80;2252.80;;;;;;4880700;29;20029;-74
2021/05/01 03:04:07;;;;;;;23.52;8.18;;;409.70;2278.40;;;;;;4880239;29;20358;-75
2021/05/01 03:06:33;;;;;;;19.50;8.90;;;409.70;2278.40;;;;;;4880496;29;20025;-75
2021/05/01 03:08:59;;;;;;;17.67;8.05;;;409.60;2304.00;;;;;;4880245;29;20029;-75
2021/05/01 03:11:25;;;;;;;18.67;8.77;;;384.90;2304.00;;;;;;4880375;29;20502;-75
2021/05/01 03:13:50;;;;;;;15.48;7.93;;;384.90;2304.00;;;;;;4880517;29;20144;-75
2021/05/01 03:16:16;;;;;;;17.55;8.60;;;409.60;2329.60;;;;;;4879978;29;20108;-75
2021/05/01 03:18:42;;;;;;;17.67;9.02;;;409.70;2304.00;;;;;;4880303;29;20041;-75
2021/05/01 03:21:08;;;;;;;16.13;7.80;;;409.80;2278.40;;;;;;4879748;29;20037;-75
2021/05/01 03:23:34;;;;;;;12.38;7.88;;;410.00;2252.80;;;;;;4880277;29;20112;-75
2021/05/01 03:25:59;;;;;;;17.25;8.73;;;410.00;2252.80;;;;;;4880115;29;20029;-75
2021/05/01 03:28:25;;;;;;;15.70;7.82;;;410.00;2252.80;;;;;;4880139;29;20169;-75
2021/05/01 03:30:51;;;;;;;12.40;7.70;;;410.00;2252.80;;;;;;4880081;29;20033;-75
2021/05/01 03:33:17;;;;;;;19.25;8.75;;;409.90;2278.40;;;;;;4879696;29;20557;-75
2021/05/01 03:35:42;;;;;;;20.17;9.07;;;384.90;2304.00;;;;;;4879409;29;20029;-74
2021/05/01 03:38:08;;;;;;;22.00;10.70;;;384.90;2329.60;;;;;;4879715;29;20048;-77
2021/05/01 03:40:34;;;;;;;19.40;10.10;;;384.90;2304.00;;;;;;4862900;29;20040;-75
2021/05/01 03:43:00;;;;;;;19.20;10.20;;;409.70;2329.60;;;;;;4879687;29;20397;-76
2021/05/01 03:45:25;;;;;;;27.13;11.38;;;409.80;2304.00;;;;;;4879849;29;20099;-75
2021/05/01 03:47:51;;;;;;;26.63;10.60;;;409.90;2304.00;;;;;;4879645;29;20029;-75
2021/05/01 03:50:17;;;;;;;22.45;10.52;;;409.90;2304.00;;;;;;4862670;29;20451;-75
2021/05/01 03:52:43;;;;;;;19.58;9.93;;;409.60;2329.60;;;;;;4879381;29;20096;-76
2021/05/01 03:55:09;;;;;;;30.25;11.50;;;384.70;2329.60;;;;;;4879511;29;20029;-76
2021/05/01 03:57:35;;;;;;;22.23;11.13;;;384.60;2329.60;;;;;;4879400;29;20037;-76
2021/05/01 04:00:01;;;;;;;20.40;10.60;;;384.70;2329.60;;;;;;4879493;29;20033;-76
2021/05/01 04:02:27;;;;;;;19.38;10.10;;;384.80;2329.60;;;;;;4879287;29;20060;-76
2021/05/01 04:04:52;;;;;;;21.90;10.23;;;384.90;2329.60;;;;;;4879647;29;20061;-77
2021/05/01 04:07:18;;;;;;;19.90;10.25;;;384.90;2329.60;;;;;;4879096;29;20081;-76
2021/05/01 04:09:44;;;;;;;24.90;10.02;;;409.70;2329.60;;;;;;4862469;29;20045;-76
2021/05/01 04:12:10;;;;;;;18.83;9.70;;;409.80;2329.60;;;;;;4879224;29;20037;-76
2021/05/01 04:14:35;;;;;;;15.23;8.32;;;409.60;2355.20;;;;;;4879088;29;20431;-75
2021/05/01 04:17:01;;;;;;;16.17;7.88;;;384.90;2329.60;;;;;;4862384;29;20068;-75
2021/05/01 04:19:27;;;;;;;15.02;8.02;;;384.90;2329.60;;;;;;4879038;29;20059;-75
2021/05/01 04:21:53;;;;;;;16.25;7.90;;;384.90;2329.60;;;;;;4878960;29;20482;-76
2021/05/01 04:24:18;;;;;;;24.13;7.75;;;384.80;2329.60;;;;;;4878745;29;20029;-75
2021/05/01 04:26:45;;;;;;;13.10;7.75;;;384.90;2329.60;;;;;;4879070;29;20029;-74
2021/05/01 04:29:11;;;;;;;16.13;8.68;;;384.90;2329.60;;;;;;4878745;29;20029;-76
2021/05/01 04:31:36;;;;;;;15.90;7.30;;;409.60;2355.20;;;;;;4878913;29;20032;-78
2021/05/01 04:34:03;;;;;;;18.95;8.63;;;384.90;2329.60;;;;;;4878483;29;20521;-74
2021/05/01 04:36:28;;;;;;;12.50;7.78;;;409.70;2355.20;;;;;;4861683;29;20485;-75
2021/05/01 04:38:54;;;;;;;11.57;7.18;;;410.00;2329.60;;;;;;4878786;29;20073;-74
2021/05/01 04:41:20;;;;;;;14.63;8.13;;;410.00;2329.60;;;;;;4877637;29;20033;-74
2021/05/01 04:43:46;;;;;;;17.27;8.90;;;410.20;2304.00;;;;;;4878409;29;20029;-74
2021/05/01 04:46:17;;;;;;;15.05;8.02;;;410.20;2304.00;;;;;;4877997;29;20052;-74
2021/05/01 04:48:43;;;;;;;16.58;8.23;;;410.30;2304.00;;;;;;4878368;29;20378;-74
2021/05/01 04:51:09;;;;;;;13.93;7.35;;;410.40;2304.00;;;;;;4877684;29;20057;-75
2021/05/01 04:53:35;;;;;;;17.40;8.55;;;410.50;2278.40;;;;;;4878112;29;20025;-74
2021/05/01 04:56:00;;;;;;;15.85;8.93;;;410.50;2278.40;;;;;;4877809;29;20033;-75
2021/05/01 04:58:26;;;;;;;9.75;6.53;;;435.20;2278.40;;;;;;4877970;29;20386;-74
2021/05/01 05:00:52;;;;;;;17.98;7.43;;;435.20;2252.80;;;;;;4877911;29;20029;-74
2021/05/01 05:03:18;;;;;;;12.85;7.00;;;435.20;2252.80;;;;;;4877875;29;20033;-75
2021/05/01 05:05:44;;;;;;;14.63;7.25;;;435.30;2252.80;;;;;;4878126;29;20120;-76
2021/05/01 05:08:10;;;;;;;12.25;6.63;;;435.40;2227.20;;;;;;4877627;29;20474;-75
2021/05/01 05:10:36;;;;;;;13.75;6.63;;;435.30;2252.80;;;;;;4877968;29;20493;-75
2021/05/01 05:13:02;;;;;;;12.68;6.82;;;435.30;2252.80;;;;;;4877802;29;20036;-74
2021/05/01 05:15:28;;;;;;;17.33;6.60;;;435.50;2227.20;;;;;;4878014;29;20028;-77
2021/05/01 05:17:54;;;;;;;14.45;7.00;;;435.50;2252.80;;;;;;4877727;29;20048;-74
2021/05/01 05:20:20;;;;;;;14.25;6.85;;;435.50;2227.20;;;;;;4877753;29;20446;-75
2021/05/01 05:22:45;;;;;;;11.35;6.32;;;435.40;2252.80;;;;;;4877555;29;20112;-76
2021/05/01 05:25:11;;;;;;;16.90;8.00;;;435.50;2227.20;;;;;;4877437;29;20040;-75
2021/05/01 05:27:37;;;;;;;11.85;6.10;;;435.50;2227.20;;;;;;4877744;29;20029;-74
2021/05/01 05:30:04;;;;;;;17.30;7.47;;;435.70;2201.60;;;;;;4878028;29;20029;-75
2021/05/01 05:32:30;;;;;;;13.23;7.55;;;435.80;2201.60;;;;;;4877889;29;20035;-75
2021/05/01 05:34:55;;;;;;;11.35;6.93;;;435.80;2201.60;;;;;;4877696;29;20107;-75
2021/05/01 05:37:21;;;;;;;17.40;7.00;;;435.60;2252.80;;;;;;4878025;29;20492;-75
2021/05/01 05:39:49;;;;;;;12.95;6.35;;;435.60;2227.20;;;;;;4877777;29;20048;-75
2021/05/01 05:42:16;;;;;;;9.98;6.47;;;435.70;2201.60;;;;;;4877920;29;20033;-75
2021/05/01 05:44:45;;;;;;;16.73;6.38;;;435.80;2201.60;;;;;;4877805;29;20049;-74
2021/05/01 05:47:12;;;;;;;14.48;6.38;;;435.90;2150.40;;;;;;4878016;29;20037;-74
2021/05/01 05:49:38;;;;;;;18.95;7.43;;;435.90;2176.00;;;;;;4877868;29;20079;-75
2021/05/01 05:52:04;;;;;;;12.77;6.57;;;436.00;2176.00;;;;;;4877038;29;20053;-75
2021/05/01 05:54:30;;;;;;;12.90;6.43;;;436.10;2176.00;;;;;;4877638;29;20021;-74
2021/05/01 05:56:56;;;;;;;9.48;5.95;;;436.10;2176.00;;;;;;4877687;29;20134;-75
2021/05/01 05:59:22;;;;;;;12.32;6.00;;;460.80;2201.60;;;;;;4881327;29;20028;-75
2021/05/01 06:01:48;;;;;;;13.63;6.10;;;460.90;2201.60;;;;;;4880824;29;20025;-74
2021/05/01 06:04:31;;;;;;;11.40;6.78;;;461.00;2176.00;;;;;;4881051;29;20076;-74
2021/05/01 06:07:07;;;;;;;11.77;6.70;;;461.10;2201.60;;;;;;4864176;29;20393;-74
2021/05/01 06:09:37;;;;;;;12.23;6.00;;;461.10;2201.60;;;;;;4881252;29;20029;-75
2021/05/01 06:12:03;;;;;;;16.70;7.75;;;461.20;2176.00;;;;;;4881551;29;20081;-76
2021/05/01 06:14:29;;;;;;;19.13;7.13;;;461.20;2176.00;;;;;;4881119;29;20029;-77
2021/05/01 06:16:56;;;;;;;13.65;6.60;;;461.30;2176.00;;;;;;4881436;29;20128;-77
2021/05/01 06:19:22;;;;;;;13.38;7.30;;;461.40;2176.00;;;;;;4881265;29;20021;-83
2021/05/01 06:21:49;;;;;;;16.52;8.38;;;461.50;2150.40;;;;;;4881105;29;20041;-75
2021/05/01 06:24:17;;;;;;;13.65;7.05;;;461.70;2176.00;;;;;;4880824;29;20482;-75
2021/05/01 06:26:43;;;;;;;14.75;6.93;;;461.70;2124.80;;;;;;4880231;29;20045;-74
2021/05/01 06:29:09;;;;;;;11.95;6.78;;;486.40;2124.80;;;;;;4881343;29;20104;-76
2021/05/01 06:31:36;;;;;;;10.80;7.03;;;486.50;2124.80;;;;;;4880971;29;20138;-75
2021/05/01 06:34:03;;;;;;;15.15;7.45;;;486.60;2099.20;;;;;;4881154;29;20457;-76
2021/05/01 06:36:30;;;;;;;13.82;6.68;;;486.70;2124.80;;;;;;4880717;29;20408;-75
2021/05/01 06:39:00;;;;;;;13.95;7.75;;;486.80;2099.20;;;;;;4880915;29;20043;-75
2021/05/01 06:41:32;;;;;;;16.98;6.63;;;487.00;2048.00;;;;;;4880830;29;20032;-75
2021/05/01 06:44:03;;;;;;;17.33;6.30;;;487.00;2048.00;;;;;;4880975;29;20085;-75
2021/05/01 06:46:31;;;;;;;11.93;6.88;;;487.00;2022.40;;;;;;4880801;29;20103;-75
2021/05/01 06:49:01;;;;;;;11.73;6.43;;;487.00;2022.40;;;;;;4880648;29;20033;-75
2021/05/01 06:51:29;;;;;;;13.13;6.68;;;487.10;2073.60;;;;;;4880415;29;20064;-75
2021/05/01 06:54:00;;;;;;;22.92;6.57;;;487.10;2048.00;;;;;;4880491;29;20021;-76
2021/05/01 06:56:27;;;;;;;14.45;7.00;;;487.30;1996.80;;;;;;4880555;29;20029;-77
2021/05/01 06:58:58;;;;;;;12.02;6.95;;;512.00;2022.40;;;;;;4880509;29;20029;-77
2021/05/01 07:01:24;;;;;;;15.02;6.80;;;512.10;1996.80;;;;;;4880541;29;20378;-76
2021/05/01 07:03:50;;;;;;;16.50;6.45;;;512.20;1920.00;;;;;;4880694;29;20033;-76
2021/05/01 07:06:18;;;;;;;13.02;7.32;;;512.40;1945.60;;;;;;4880225;29;20064;-75
2021/05/01 07:08:44;;;;;;;19.63;10.80;;;512.40;1920.00;;;;;;4879419;29;20025;-76
2021/05/01 07:11:12;;;;;;;16.65;7.60;;;512.50;1945.60;;;;;;4880156;29;20089;-75
2021/05/01 07:13:39;;;;;;;20.70;7.18;;;512.70;1945.60;;;;;;4880298;29;20139;-76
2021/05/01 07:16:10;;;;;;;18.65;7.20;;;512.90;1894.40;;;;;;4880071;29;20025;-76
2021/05/01 07:18:38;;;;;;;29.92;9.77;;;537.60;1920.00;;;;;;4880413;29;20021;-75
2021/05/01 07:21:06;;;;;;;16.45;6.18;;;537.60;1920.00;;;;;;4879891;29;20105;-76
2021/05/01 07:23:32;;;;;;;15.25;6.30;;;537.70;1894.40;;;;;;4879884;29;20047;-76
2021/05/01 07:25:58;;;;;;;17.98;9.05;;;537.80;1894.40;;;;;;4880219;29;20501;-76
2021/05/01 07:28:26;;;;;;;17.85;7.63;;;538.00;1868.80;;;;;;4879994;29;20029;-76
2021/05/01 07:30:56;;;;;;;25.70;11.68;;;538.10;1868.80;;;;;;4880270;29;20036;-76
2021/05/01 07:33:50;;;;;;;25.98;8.25;;;538.20;1817.60;;;;;;4879902;29;20099;-76
2021/05/01 07:36:42;;;;;;;21.65;9.82;;;538.50;1817.60;;;;;;4879538;29;20120;-75
2021/05/01 07:39:12;;;;;;;18.73;9.18;;;563.20;1817.60;;;;;;4879774;29;20025;-75
2021/05/01 07:41:44;;;;;;;17.58;5.65;;;563.50;1843.20;;;;;;4879952;29;20065;-75
2021/05/01 07:44:10;;;;;;;20.83;7.75;;;563.60;1766.40;;;;;;4879581;29;20033;-76
2021/05/01 07:46:41;;;;;;;18.23;6.10;;;563.80;1766.40;;;;;;4879840;29;20025;-75
2021/05/01 07:49:08;;;;;;;11.52;5.40;;;564.00;1715.20;;;;;;4879581;29;20077;-77
2021/05/01 07:51:36;;;;;;;28.15;6.35;;;564.00;1664.00;;;;;;4879474;29;20057;-76
2021/05/01 07:54:05;;;;;;;16.48;5.75;;;564.10;1689.60;;;;;;4879369;29;20021;-74
2021/05/01 07:56:31;;;;;;;18.95;5.70;;;588.80;1715.20;;;;;;4879306;29;20025;-75
2021/05/01 07:58:58;;;;;;;18.27;7.90;;;588.90;1664.00;;;;;;4879437;29;20061;-76
2021/05/01 08:01:27;;;;;;;16.90;6.30;;;589.10;1664.00;;;;;;4879486;29;20021;-75
2021/05/01 08:03:54;;;;;;;19.58;6.32;;;589.20;1612.80;;;;;;4879745;29;20442;-75
2021/05/01 08:06:20;;;;;;;22.17;5.10;;;589.30;1638.40;;;;;;4879201;29;20037;-75
2021/05/01 08:08:45;;;;;;;14.65;5.50;;;589.20;1561.60;;;;;;4879326;29;20025;-75
2021/05/01 08:11:11;;;;;;;10.70;4.75;;;589.30;1612.80;;;;;;4879097;29;20029;-74
2021/05/01 08:13:37;;;;;;;18.63;6.03;;;589.60;1510.40;;;;;;4879544;29;20041;-74
2021/05/01 08:16:03;;;;;;;17.33;6.53;;;589.70;1561.60;;;;;;4879049;29;20095;-74
2021/05/01 08:18:29;;;;;;;14.68;5.53;;;589.70;1484.80;;;;;;4879234;29;20047;-75
2021/05/01 08:20:54;;;;;;;18.77;5.63;;;614.40;1459.20;;;;;;4878939;29;20500;-75
2021/05/01 08:23:20;;;;;;;16.58;6.40;;;614.50;1433.60;;;;;;4878793;29;20489;-75
2021/05/01 08:25:46;;;;;;;25.75;13.02;;;614.60;1484.80;;;;;;4879200;29;20025;-75
2021/05/01 08:28:12;;;;;;;20.95;5.60;;;614.80;1408.00;;;;;;4878512;29;20029;-75
2021/05/01 08:30:38;;;;;;;25.65;6.22;;;614.70;1408.00;;;;;;4879013;29;20473;-75
2021/05/01 08:33:04;;;;;;;11.63;5.35;;;614.90;1484.80;;;;;;4878691;29;20124;-75
2021/05/01 08:35:30;;;;;;;14.40;5.00;;;614.80;1382.40;;;;;;4878965;29;20104;-75
2021/05/01 08:37:56;;;;;;;17.08;5.57;;;614.80;1382.40;;;;;;4878744;29;20116;-75
2021/05/01 08:40:21;;;;;;;13.52;5.07;;;615.00;1433.60;;;;;;4878237;29;20116;-75
2021/05/01 08:42:48;;;;;;;16.77;4.57;;;615.00;1305.60;;;;;;4878090;29;20025;-75
2021/05/01 08:45:16;;;;;;;11.18;4.25;;;615.10;1356.80;;;;;;4878777;29;20029;-76
2021/05/01 08:47:44;;;;;;;19.55;4.95;;;615.10;1280.00;;;;;;4878666;29;20474;-77
2021/05/01 08:50:25;;;;;;;18.48;5.43;;;615.10;1305.60;;;;;;4880165;29;20401;-74
2021/05/01 08:52:51;;;;;;;13.25;5.00;;;615.30;1331.20;;;;;;4877556;29;20377;-73
2021/05/01 08:55:17;;;;;;;15.13;5.43;;;615.30;1280.00;;;;;;4876999;29;20031;-75
2021/05/01 08:57:43;;;;;;;13.15;4.90;;;640.00;1331.20;;;;;;4878201;29;20385;-75
2021/05/01 09:00:09;;;;;;;14.32;4.63;;;640.10;1280.00;;;;;;4878072;29;20029;-75
2021/05/01 09:02:37;;;;;;;23.92;5.97;;;640.20;1305.60;;;;;;4878456;29;20397;-75
2021/05/01 09:05:04;;;;;;;11.07;4.65;;;640.40;1305.60;;;;;;4878488;29;20362;-75
2021/05/01 09:07:30;;;;;;;14.40;4.47;;;640.40;1280.00;;;;;;4877902;29;20526;-75
2021/05/01 09:09:58;;;;;;;12.02;5.47;;;640.50;1203.20;;;;;;4878489;29;20044;-75
2021/05/01 09:12:48;;;;;;;18.63;5.72;;;640.70;1228.80;;;;;;4883750;29;20426;-75
2021/05/01 09:15:31;;;;;;;13.70;4.90;;;640.90;1254.40;;;;;;4881958;29;20050;-75
2021/05/01 09:18:00;;;;;;;13.55;4.50;;;665.70;1228.80;;;;;;4877560;29;20045;-76
2021/05/01 09:20:25;;;;;;;11.35;4.88;;;665.70;1228.80;;;;;;4877098;29;20040;-75
2021/05/01 09:23:01;;;;;;;13.27;4.95;;;665.90;1203.20;;;;;;4877347;29;20059;-74
2021/05/01 09:25:29;;;;;;;12.38;4.57;;;665.90;1177.60;;;;;;4877306;29;20029;-74
2021/05/01 09:28:04;;;;;;;15.15;4.82;;;666.10;1203.20;;;;;;4877908;29;20521;-74
2021/05/01 09:30:32;;;;;;;15.25;5.80;;;666.30;1177.60;;;;;;4877625;29;20080;-75
2021/05/01 09:33:17;;;;;;;15.30;5.28;;;666.30;1126.40;;;;;;4858684;29;20124;-74
2021/05/01 09:35:46;;;;;;;21.63;5.40;;;666.40;1126.40;;;;;;4877817;29;20108;-74
2021/05/01 09:38:12;;;;;;;15.80;4.88;;;666.50;1075.20;;;;;;4877709;29;20382;-76
2021/05/01 09:40:47;;;;;;;13.05;4.68;;;691.20;1100.80;;;;;;4874685;29;20025;-75
2021/05/01 09:43:13;;;;;;;35.05;16.13;;;691.40;1075.20;;;;;;4878305;29;20038;-75
2021/05/01 09:45:39;;;;;;;19.38;6.70;;;691.50;1049.60;;;;;;4870499;29;20360;-74
2021/05/01 09:48:19;;;;;;;10.95;4.40;;;691.50;1075.20;;;;;;4874440;29;20040;-74
2021/05/01 09:50:47;;;;;;;23.00;5.20;;;691.70;1049.60;;;;;;4859773;29;20494;-75
2021/05/01 09:53:17;;;;;;;14.57;4.88;;;691.70;1024.00;;;;;;4877511;29;20045;-76
2021/05/01 09:55:44;;;;;;;14.95;5.35;;;691.80;998.40;;;;;;4877627;29;20053;-74
2021/05/01 09:58:15;;;;;;;10.30;4.45;;;691.90;947.20;;;;;;4876643;29;20101;-75
2021/05/01 10:00:41;;;;;;;17.65;4.75;;;691.80;998.40;;;;;;4877621;29;20056;-75
2021/05/01 10:03:29;;;;;;;24.85;7.35;;;692.00;972.80;;;;;;4876682;29;20056;-75
2021/05/01 10:06:00;;;;;;;16.50;6.43;;;716.80;972.80;;;;;;4875704;29;20068;-77
2021/05/01 10:08:31;;;;;;;17.65;5.95;;;692.10;947.20;;;;;;4877740;29;20036;-76
2021/05/01 10:11:06;;;;;;;13.90;4.22;;;716.90;947.20;;;;;;4870580;29;20078;-75
2021/05/01 10:13:32;;;;;;;25.23;5.50;;;717.10;972.80;;;;;;4871427;29;20519;-75
2021/05/01 10:16:06;;;;;;;16.30;6.47;;;717.40;947.20;;;;;;4877124;29;20068;-76
2021/05/01 10:18:32;;;;;;;76.03;54.97;;;717.50;870.40;;;;;;4876516;29;20498;-76
2021/05/01 10:20:58;;;;;;;96.38;68.53;;;717.60;870.40;;;;;;4877126;29;20093;-76
2021/05/01 10:23:23;;;;;;;17.73;6.10;;;717.70;844.80;;;;;;4877404;29;20029;-76
2021/05/01 10:25:49;;;;;;;171.68;129.55;;;717.70;896.00;;;;;;4877176;29;20025;-75
2021/05/01 10:28:18;;;;;;;17.98;7.28;;;717.40;870.40;;;;;;4877243;29;20035;-77
2021/05/01 10:30:52;;;;;;;15.02;4.72;;;717.00;921.60;;;;;;4877392;29;20029;-76
2021/05/01 10:33:38;;;;;;;16.60;5.43;;;716.90;896.00;;;;;;4876642;29;20036;-76
2021/05/01 10:36:11;;;;;;;14.30;4.75;;;717.20;819.20;;;;;;4874271;29;20045;-76
2021/05/01 10:38:38;;;;;;;40.13;18.10;;;717.00;844.80;;;;;;4877448;29;20056;-79
2021/05/01 10:41:12;;;;;;;15.57;5.35;;;717.30;921.60;;;;;;4876960;29;20501;-76
2021/05/01 10:43:38;;;;;;;12.00;4.27;;;717.60;844.80;;;;;;4878675;29;20025;-76
2021/05/01 10:46:06;;;;;;;84.65;52.20;;;742.40;870.40;;;;;;4880574;29;20583;-77
2021/05/01 10:48:34;;;;;;;52.72;32.15;;;742.70;844.80;;;;;;4880469;29;20036;-77
2021/05/01 10:51:02;;;;;;;160.70;105.50;;;742.70;844.80;;;;;;4879404;29;20525;-76
2021/05/01 10:53:28;;;;;;;131.95;90.85;;;742.90;793.60;;;;;;4880442;29;20032;-77
2021/05/01 10:55:55;;;;;;;28.52;9.00;;;743.00;793.60;;;;;;4880529;29;20033;-77
2021/05/01 10:58:29;;;;;;;20.95;8.07;;;742.80;844.80;;;;;;4862677;29;20049;-77
2021/05/01 11:00:55;;;;;;;26.47;6.70;;;742.80;896.00;;;;;;4862660;29;20093;-76
2021/05/01 11:03:23;;;;;;;31.58;11.73;;;742.70;921.60;;;;;;4880239;29;20272;-76
2021/05/01 11:05:50;;;;;;;165.93;122.22;;;742.80;844.80;;;;;;4873851;29;20104;-76
2021/05/01 11:08:33;;;;;;;19.55;7.60;;;742.80;844.80;;;;;;4880163;29;20028;-76
2021/05/01 11:11:01;;;;;;;153.65;92.63;;;742.60;896.00;;;;;;4878819;29;20041;-76
2021/05/01 11:13:32;;;;;;;79.30;40.90;;;742.40;896.00;;;;;;4879235;29;20044;-76
2021/05/01 11:16:04;;;;;;;296.90;188.52;;;717.50;844.80;;;;;;4879877;29;20100;-77
2021/05/01 11:18:39;;;;;;;39.22;19.77;;;717.40;844.80;;;;;;4879950;29;20033;-76
2021/05/01 11:21:07;;;;;;;63.25;39.83;;;717.20;921.60;;;;;;4879778;29;20057;-77
2021/05/01 11:23:35;;;;;;;59.25;38.10;;;717.20;896.00;;;;;;4859608;29;20497;-75
2021/05/01 11:26:05;;;;;;;125.78;92.75;;;717.10;896.00;;;;;;4879119;29;20046;-75
2021/05/01 11:28:33;;;;;;;43.53;22.48;;;717.10;896.00;;;;;;4873028;29;20029;-75
2021/05/01 11:30:59;;;;;;;34.50;13.38;;;716.90;870.40;;;;;;4862779;29;20089;-76
2021/05/01 11:33:26;;;;;;;48.45;33.30;;;716.80;844.80;;;;;;4861814;29;20474;-77
2021/05/01 11:35:52;;;;;;;28.92;16.50;;;716.90;896.00;;;;;;4875238;29;20529;-75
2021/05/01 11:38:34;;;;;;;26.48;12.48;;;716.90;896.00;;;;;;4879807;29;20040;-75
2021/05/01 11:41:02;;;;;;;37.45;13.63;;;717.00;896.00;;;;;;4879380;29;20029;-75
2021/05/01 11:43:30;;;;;;;21.95;7.57;;;717.20;896.00;;;;;;4879442;29;20104;-75
2021/05/01 11:46:01;;;;;;;26.35;8.45;;;717.10;870.40;;;;;;4879645;29;20017;-75
2021/05/01 11:48:33;;;;;;;20.27;6.85;;;717.10;896.00;;;;;;4867557;29;20052;-77
2021/05/01 11:51:03;;;;;;;19.45;7.60;;;717.40;870.40;;;;;;4879234;29;20049;-75
2021/05/01 11:53:45;;;;;;;21.00;7.35;;;717.60;819.20;;;;;;4878633;29;20048;-75
2021/05/01 11:56:35;;;;;;;23.05;6.30;;;717.70;870.40;;;;;;4873377;29;20524;-76
2021/05/01 11:59:12;;;;;;;23.25;7.15;;;742.40;844.80;;;;;;4878831;29;20115;-76
2021/05/01 12:01:49;;;;;;;17.13;6.00;;;717.70;870.40;;;;;;4873111;29;20025;-73
2021/05/01 12:04:18;;;;;;;17.10;5.47;;;717.60;844.80;;;;;;4848479;29;20081;-77
2021/05/01 12:06:52;;;;;;;22.40;6.38;;;717.50;844.80;;;;;;4875864;29;20033;-74
2021/05/01 12:09:28;;;;;;;26.40;8.68;;;717.50;896.00;;;;;;4873969;29;20060;-74
2021/05/01 12:11:58;;;;;;;23.05;6.30;;;717.60;947.20;;;;;;4878658;29;20067;-75